Time;durP1;ratioP1;P1;durP2;ratioP2;P2;SDS_P1;SDS_P2;PMS_P1;PMS_P2;Temp;Humidity;BMP_temperature;BMP_pressure;BME280_temperature;BME280_humidity;BME280_pressure;Samples;Min_cycle;Max_cycle;Signal;HPM_P1;HPM_P2
2022/07/09 00:02:13;;;;;;;;;5.00;5.00;;;;;;;;4881869;29;45469;-78
2022/07/09 00:04:38;;;;;;;;;4.33;4.33;;;;;;;;4894348;29;46307;-82
2022/07/09 00:07:03;;;;;;;;;5.33;5.33;;;;;;;;4891256;28;45422;-81
2022/07/09 00:09:29;;;;;;;;;7.00;5.33;;;;;;;;4891697;29;45751;-79
2022/07/09 00:11:54;;;;;;;;;6.00;5.00;;;;;;;;4886916;28;45392;-82
2022/07/09 00:14:19;;;;;;;;;4.67;4.33;;;;;;;;4883557;29;45560;-81
2022/07/09 00:16:44;;;;;;;;;5.33;5.33;;;;;;;;4892750;28;45459;-81
2022/07/09 00:19:10;;;;;;;;;6.00;6.00;;;;;;;;4882683;29;45358;-81
2022/07/09 00:21:35;;;;;;;;;6.33;5.00;;;;;;;;4890646;29;45328;-81
2022/07/09 00:24:00;;;;;;;;;6.67;6.67;;;;;;;;4887242;29;46539;-81
2022/07/09 00:26:25;;;;;;;;;6.00;6.00;;;;;;;;4879330;28;45324;-81
2022/07/09 00:28:50;;;;;;;;;5.33;4.67;;;;;;;;4882160;29;45357;-81
2022/07/09 00:31:16;;;;;;;;;6.67;5.67;;;;;;;;4891581;29;45708;-81
2022/07/09 00:33:41;;;;;;;;;6.00;6.00;;;;;;;;4886061;29;46546;-81
2022/07/09 00:36:06;;;;;;;;;5.00;5.00;;;;;;;;4880970;29;45643;-81
2022/07/09 00:38:31;;;;;;;;;6.00;5.00;;;;;;;;4889658;29;45331;-81
2022/07/09 00:40:57;;;;;;;;;4.67;4.67;;;;;;;;4895461;29;45621;-81
2022/07/09 00:43:22;;;;;;;;;6.67;5.33;;;;;;;;4886729;29;47258;-82
2022/07/09 00:45:48;;;;;;;;;4.33;4.00;;;;;;;;4898269;29;45275;-82
2022/07/09 00:48:14;;;;;;;;;6.00;6.00;;;;;;;;4886044;29;45228;-81
2022/07/09 00:50:40;;;;;;;;;5.67;5.67;;;;;;;;4882818;29;47570;-82
2022/07/09 00:53:07;;;;;;;;;6.33;6.33;;;;;;;;4876013;29;47221;-82
2022/07/09 00:55:32;;;;;;;;;6.33;6.00;;;;;;;;4890125;29;45622;-82
2022/07/09 00:57:57;;;;;;;;;7.00;7.00;;;;;;;;4883477;29;45340;-83
2022/07/09 01:00:23;;;;;;;;;6.33;5.00;;;;;;;;4890667;29;45501;-82
2022/07/09 01:02:49;;;;;;;;;6.67;6.00;;;;;;;;4889586;29;45470;-81
2022/07/09 01:05:14;;;;;;;;;6.33;5.00;;;;;;;;4898311;29;45380;-82
2022/07/09 01:07:39;;;;;;;;;4.67;4.67;;;;;;;;4887240;29;45300;-82
2022/07/09 01:10:04;;;;;;;;;5.00;5.00;;;;;;;;4900950;29;45351;-81
2022/07/09 01:12:30;;;;;;;;;6.67;6.33;;;;;;;;4881310;28;45423;-82
2022/07/09 01:14:56;;;;;;;;;5.67;5.67;;;;;;;;4890027;29;45412;-81
2022/07/09 01:17:21;;;;;;;;;7.00;5.00;;;;;;;;4885936;29;45420;-82
2022/07/09 01:19:46;;;;;;;;;7.00;6.33;;;;;;;;4891573;29;45478;-81
2022/07/09 01:22:11;;;;;;;;;6.67;6.67;;;;;;;;4884443;28;46216;-81
2022/07/09 01:24:36;;;;;;;;;8.00;6.33;;;;;;;;4891239;29;45312;-81
2022/07/09 01:27:02;;;;;;;;;6.00;6.00;;;;;;;;4885869;28;45467;-81
2022/07/09 01:29:27;;;;;;;;;5.67;5.67;;;;;;;;4873504;29;46660;-81
2022/07/09 01:31:52;;;;;;;;;6.00;6.00;;;;;;;;4878274;29;45421;-82
2022/07/09 01:34:17;;;;;;;;;7.00;6.00;;;;;;;;4877685;29;45342;-82
2022/07/09 01:36:44;;;;;;;;;7.00;7.00;;;;;;;;4887172;28;45476;-82
2022/07/09 01:39:09;;;;;;;;;5.33;4.33;;;;;;;;4880956;29;45467;-82
2022/07/09 01:41:34;;;;;;;;;5.67;5.67;;;;;;;;4881050;28;46216;-81
2022/07/09 01:43:59;;;;;;;;;5.00;5.00;;;;;;;;4884841;29;45359;-81
2022/07/09 01:46:25;;;;;;;;;7.33;5.67;;;;;;;;4886071;29;45186;-82
2022/07/09 01:48:50;;;;;;;;;9.00;5.67;;;;;;;;4908064;28;45170;-82
2022/07/09 01:51:15;;;;;;;;;6.00;6.00;;;;;;;;4890296;28;45353;-82
2022/07/09 01:53:40;;;;;;;;;6.67;6.67;;;;;;;;4885935;29;45245;-82
2022/07/09 01:56:06;;;;;;;;;8.00;7.33;;;;;;;;4893855;29;45236;-82
2022/07/09 01:58:32;;;;;;;;;7.00;7.00;;;;;;;;4886127;29;45406;-80
2022/07/09 02:00:57;;;;;;;;;6.67;6.67;;;;;;;;4897939;28;45538;-80
2022/07/09 02:03:22;;;;;;;;;5.67;5.00;;;;;;;;4897142;28;45229;-81
2022/07/09 02:05:48;;;;;;;;;7.67;7.00;;;;;;;;4898360;29;45268;-80
2022/07/09 02:08:13;;;;;;;;;11.00;6.33;;;;;;;;4890958;29;45318;-80
2022/07/09 02:10:38;;;;;;;;;8.67;7.67;;;;;;;;4901486;28;45341;-80
2022/07/09 02:13:03;;;;;;;;;5.67;5.67;;;;;;;;4877856;29;45165;-81
2022/07/09 02:15:28;;;;;;;;;7.00;7.00;;;;;;;;4900204;29;45376;-80
2022/07/09 02:17:54;;;;;;;;;5.67;5.67;;;;;;;;4886316;29;45298;-81
2022/07/09 02:20:20;;;;;;;;;6.67;5.67;;;;;;;;4899516;29;45534;-81
2022/07/09 02:22:46;;;;;;;;;7.33;7.33;;;;;;;;4887275;29;45660;-81
2022/07/09 02:25:11;;;;;;;;;5.33;5.33;;;;;;;;4895225;29;45360;-81
2022/07/09 02:27:36;;;;;;;;;9.00;5.67;;;;;;;;4884100;29;45527;-81
2022/07/09 02:30:02;;;;;;;;;8.00;6.33;;;;;;;;4887087;28;45532;-81
2022/07/09 02:32:27;;;;;;;;;8.00;7.67;;;;;;;;4881820;29;45259;-81
2022/07/09 02:34:52;;;;;;;;;5.00;5.00;;;;;;;;4895775;29;45339;-81
2022/07/09 02:37:18;;;;;;;;;6.33;6.33;;;;;;;;4884639;29;45704;-81
2022/07/09 02:39:43;;;;;;;;;6.00;6.00;;;;;;;;4881991;29;46662;-81
2022/07/09 02:42:08;;;;;;;;;9.33;7.33;;;;;;;;4885363;29;45332;-81
2022/07/09 02:44:33;;;;;;;;;7.00;6.00;;;;;;;;4901049;28;45585;-81
2022/07/09 02:46:59;;;;;;;;;8.00;7.67;;;;;;;;4891165;28;45304;-81
2022/07/09 02:49:24;;;;;;;;;4.33;4.00;;;;;;;;4893436;28;47194;-80
2022/07/09 02:51:49;;;;;;;;;5.33;5.33;;;;;;;;4890426;29;45338;-81
2022/07/09 02:54:15;;;;;;;;;7.00;7.00;;;;;;;;4895209;29;45289;-80
2022/07/09 02:56:40;;;;;;;;;7.67;7.67;;;;;;;;4894634;29;45399;-81
2022/07/09 02:59:05;;;;;;;;;6.00;6.00;;;;;;;;4884350;29;45584;-81
2022/07/09 03:01:30;;;;;;;;;9.67;6.67;;;;;;;;4891414;29;45432;-80
2022/07/09 03:03:56;;;;;;;;;7.67;7.67;;;;;;;;4887535;29;45214;-80
2022/07/09 03:06:21;;;;;;;;;7.00;6.33;;;;;;;;4886520;29;45265;-80
2022/07/09 03:08:46;;;;;;;;;9.33;9.33;;;;;;;;4881451;29;45887;-80
2022/07/09 03:11:12;;;;;;;;;8.67;8.67;;;;;;;;4887291;29;45214;-80
2022/07/09 03:13:37;;;;;;;;;6.67;5.67;;;;;;;;4883507;29;45607;-81
2022/07/09 03:16:03;;;;;;;;;9.00;9.00;;;;;;;;4897911;29;46287;-81
2022/07/09 03:18:28;;;;;;;;;9.00;9.00;;;;;;;;4886624;29;47670;-80
2022/07/09 03:20:53;;;;;;;;;11.00;10.00;;;;;;;;4894012;29;45307;-80
2022/07/09 03:23:19;;;;;;;;;7.67;7.33;;;;;;;;4889872;29;45293;-80
2022/07/09 03:25:44;;;;;;;;;10.33;10.33;;;;;;;;4889120;29;45508;-80
2022/07/09 03:28:09;;;;;;;;;10.00;8.33;;;;;;;;4885797;29;46651;-80
2022/07/09 03:30:34;;;;;;;;;8.33;7.00;;;;;;;;4891490;29;45366;-79
2022/07/09 03:33:00;;;;;;;;;8.67;7.67;;;;;;;;4882418;29;45411;-79
2022/07/09 03:35:25;;;;;;;;;9.67;9.00;;;;;;;;4895206;29;45790;-79
2022/07/09 03:37:50;;;;;;;;;10.33;9.33;;;;;;;;4884037;28;46101;-79
2022/07/09 03:40:15;;;;;;;;;8.33;7.00;;;;;;;;4897031;29;45542;-79
2022/07/09 03:42:41;;;;;;;;;9.00;8.33;;;;;;;;4882091;28;45295;-79
2022/07/09 03:45:06;;;;;;;;;10.67;10.33;;;;;;;;4897839;29;45424;-79
2022/07/09 03:47:31;;;;;;;;;9.00;8.00;;;;;;;;4884716;28;46637;-79
2022/07/09 03:49:56;;;;;;;;;11.00;8.33;;;;;;;;4888852;29;45460;-79
2022/07/09 03:52:22;;;;;;;;;10.00;9.33;;;;;;;;4881640;28;45473;-79
2022/07/09 03:54:47;;;;;;;;;12.67;10.00;;;;;;;;4888327;29;45383;-79
2022/07/09 03:57:12;;;;;;;;;10.00;9.67;;;;;;;;4879028;29;46576;-79
2022/07/09 03:59:38;;;;;;;;;6.00;6.00;;;;;;;;4894584;29;45443;-79
2022/07/09 04:02:05;;;;;;;;;7.00;7.00;;;;;;;;4892677;28;45375;-79
2022/07/09 04:04:30;;;;;;;;;7.33;7.33;;;;;;;;4896956;29;45301;-78
2022/07/09 04:06:56;;;;;;;;;9.33;9.33;;;;;;;;4895197;29;46389;-78
2022/07/09 04:09:21;;;;;;;;;12.00;11.00;;;;;;;;4887045;29;45492;-78
2022/07/09 04:11:46;;;;;;;;;9.67;9.67;;;;;;;;4885613;29;45458;-79
2022/07/09 04:14:12;;;;;;;;;10.33;10.33;;;;;;;;4879201;29;45410;-79
2022/07/09 04:16:37;;;;;;;;;12.00;10.67;;;;;;;;4894820;29;45217;-80
2022/07/09 04:19:02;;;;;;;;;10.00;10.00;;;;;;;;4886351;29;45203;-79
2022/07/09 04:21:27;;;;;;;;;14.00;11.00;;;;;;;;4886787;29;45234;-78
2022/07/09 04:23:53;;;;;;;;;10.33;10.33;;;;;;;;4884722;29;45615;-79
2022/07/09 04:26:18;;;;;;;;;12.00;11.00;;;;;;;;4889381;29;47486;-79
2022/07/09 04:28:44;;;;;;;;;10.67;9.33;;;;;;;;4886766;29;45319;-79
2022/07/09 04:31:09;;;;;;;;;11.00;10.00;;;;;;;;4886327;29;45423;-78
2022/07/09 04:33:34;;;;;;;;;11.67;11.33;;;;;;;;4889996;28;45372;-79
2022/07/09 04:35:59;;;;;;;;;11.00;11.00;;;;;;;;4893463;29;45623;-79
2022/07/09 04:38:25;;;;;;;;;9.33;9.33;;;;;;;;4883618;29;45478;-79
2022/07/09 04:40:50;;;;;;;;;10.33;10.33;;;;;;;;4899704;29;45312;-79
2022/07/09 04:43:16;;;;;;;;;10.33;10.33;;;;;;;;4877146;29;45792;-78
2022/07/09 04:45:41;;;;;;;;;10.33;9.67;;;;;;;;4885151;29;45358;-78
2022/07/09 04:48:07;;;;;;;;;9.00;9.00;;;;;;;;4890812;29;45452;-79
2022/07/09 04:50:32;;;;;;;;;11.00;11.00;;;;;;;;4891059;29;45399;-80
2022/07/09 04:52:57;;;;;;;;;10.00;10.00;;;;;;;;4878465;29;45443;-79
2022/07/09 04:55:23;;;;;;;;;10.67;10.00;;;;;;;;4894636;29;45393;-79
2022/07/09 04:57:48;;;;;;;;;12.00;10.67;;;;;;;;4882761;29;45394;-79
2022/07/09 05:00:15;;;;;;;;;10.67;10.33;;;;;;;;4893137;29;45273;-79
2022/07/09 05:02:41;;;;;;;;;11.33;11.33;;;;;;;;4890657;29;46408;-79
2022/07/09 05:05:06;;;;;;;;;9.67;9.67;;;;;;;;4901162;28;47241;-79
2022/07/09 05:07:32;;;;;;;;;12.00;11.00;;;;;;;;4892768;28;45185;-79
2022/07/09 05:09:57;;;;;;;;;12.67;11.33;;;;;;;;4897361;29;45235;-78
2022/07/09 05:12:22;;;;;;;;;10.00;10.00;;;;;;;;4878462;29;46830;-79
2022/07/09 05:14:47;;;;;;;;;11.33;9.00;;;;;;;;4884316;29;45235;-80
2022/07/09 05:17:12;;;;;;;;;10.00;10.00;;;;;;;;4874672;29;45437;-79
2022/07/09 05:19:38;;;;;;;;;14.33;12.33;;;;;;;;4887507;29;45322;-79
2022/07/09 05:22:03;;;;;;;;;13.00;11.00;;;;;;;;4886575;28;45357;-79
2022/07/09 05:24:28;;;;;;;;;11.00;11.00;;;;;;;;4889012;29;46268;-79
2022/07/09 05:26:54;;;;;;;;;10.33;10.33;;;;;;;;4881340;29;45481;-79
2022/07/09 05:29:22;;;;;;;;;12.00;11.67;;;;;;;;4887693;29;45256;-79
2022/07/09 05:31:47;;;;;;;;;10.00;9.67;;;;;;;;4879343;29;45407;-78
2022/07/09 05:34:13;;;;;;;;;12.00;10.33;;;;;;;;4888575;29;45431;-79
2022/07/09 05:36:38;;;;;;;;;12.67;10.00;;;;;;;;4885720;28;45491;-79
2022/07/09 05:39:04;;;;;;;;;15.00;13.33;;;;;;;;4894892;29;45347;-80
2022/07/09 05:41:29;;;;;;;;;9.67;9.00;;;;;;;;4889875;29;46168;-79
2022/07/09 05:43:54;;;;;;;;;11.33;11.33;;;;;;;;4891654;29;45576;-79
2022/07/09 05:46:20;;;;;;;;;16.00;14.00;;;;;;;;4895390;29;45379;-79
2022/07/09 05:48:45;;;;;;;;;10.00;10.00;;;;;;;;4896266;28;45261;-79
2022/07/09 05:51:12;;;;;;;;;9.67;9.67;;;;;;;;4893498;28;45478;-79
2022/07/09 05:53:37;;;;;;;;;10.67;10.67;;;;;;;;4890502;29;46284;-80
2022/07/09 05:56:02;;;;;;;;;13.67;10.33;;;;;;;;4893081;28;45470;-79
2022/07/09 05:58:28;;;;;;;;;14.67;13.33;;;;;;;;4883111;29;45242;-79
2022/07/09 06:00:53;;;;;;;;;11.33;10.00;;;;;;;;4894552;29;45648;-78
2022/07/09 06:03:18;;;;;;;;;12.67;12.33;;;;;;;;4885305;29;47125;-79
2022/07/09 06:05:43;;;;;;;;;16.67;13.67;;;;;;;;4898278;28;45416;-78
2022/07/09 06:08:09;;;;;;;;;15.00;12.67;;;;;;;;4887504;29;45527;-78
2022/07/09 06:10:34;;;;;;;;;12.67;12.67;;;;;;;;4901827;28;45247;-79
2022/07/09 06:12:59;;;;;;;;;16.33;13.00;;;;;;;;4869407;29;45774;-78
2022/07/09 06:15:24;;;;;;;;;14.00;14.00;;;;;;;;4876058;29;45718;-78
2022/07/09 06:17:50;;;;;;;;;16.33;13.00;;;;;;;;4873206;29;45668;-78
2022/07/09 06:20:16;;;;;;;;;14.67;13.67;;;;;;;;4900103;29;45446;-79
2022/07/09 06:22:41;;;;;;;;;15.00;13.33;;;;;;;;4882452;28;45474;-78
2022/07/09 06:25:06;;;;;;;;;12.33;12.00;;;;;;;;4897317;28;45448;-78
2022/07/09 06:27:32;;;;;;;;;15.00;14.00;;;;;;;;4877271;29;45536;-79
2022/07/09 06:29:57;;;;;;;;;14.00;13.00;;;;;;;;4884212;28;45571;-78
2022/07/09 06:32:22;;;;;;;;;14.67;13.00;;;;;;;;4876178;29;46149;-78
2022/07/09 06:34:47;;;;;;;;;14.00;12.67;;;;;;;;4886957;29;45595;-78
2022/07/09 06:37:12;;;;;;;;;13.33;11.67;;;;;;;;4881787;29;45630;-81
2022/07/09 06:39:50;;;;;;;;;11.33;11.33;;;;;;;;4891873;28;45891;-80
2022/07/09 06:42:18;;;;;;;;;11.33;11.33;;;;;;;;4883890;29;47562;-81
2022/07/09 06:44:44;;;;;;;;;15.00;12.00;;;;;;;;4901527;28;45227;-80
2022/07/09 06:47:09;;;;;;;;;11.00;11.00;;;;;;;;4891063;28;45448;-80
2022/07/09 06:49:34;;;;;;;;;15.00;13.00;;;;;;;;4897979;28;45431;-80
2022/07/09 06:52:00;;;;;;;;;13.00;12.67;;;;;;;;4895096;28;45562;-82
2022/07/09 06:54:25;;;;;;;;;14.67;13.33;;;;;;;;4893307;29;45375;-84
2022/07/09 06:56:51;;;;;;;;;12.33;12.33;;;;;;;;4887572;28;44790;-82
2022/07/09 06:59:18;;;;;;;;;13.00;11.33;;;;;;;;4895686;29;45348;-82
2022/07/09 07:01:43;;;;;;;;;13.33;12.33;;;;;;;;4891801;28;45300;-81
2022/07/09 07:04:11;;;;;;;;;13.00;12.67;;;;;;;;4892562;28;45344;-82
2022/07/09 07:06:37;;;;;;;;;12.00;11.00;;;;;;;;4896896;28;45430;-82
2022/07/09 07:09:02;;;;;;;;;18.00;17.00;;;;;;;;4893285;29;45470;-82
2022/07/09 07:11:27;;;;;;;;;16.00;13.00;;;;;;;;4886220;29;47610;-81
2022/07/09 07:13:52;;;;;;;;;12.00;12.00;;;;;;;;4878148;29;45368;-80
2022/07/09 07:16:18;;;;;;;;;11.00;11.00;;;;;;;;4887554;29;45647;-83
2022/07/09 07:18:43;;;;;;;;;14.00;12.67;;;;;;;;4879687;29;45317;-80
2022/07/09 07:21:08;;;;;;;;;12.00;10.67;;;;;;;;4892580;29;47742;-79
2022/07/09 07:23:33;;;;;;;;;12.00;11.00;;;;;;;;4882893;29;45310;-79
2022/07/09 07:25:59;;;;;;;;;8.00;8.00;;;;;;;;4896715;28;45253;-79
2022/07/09 07:28:25;;;;;;;;;7.25;7.25;;;;;;;;4882560;29;45393;-80
2022/07/09 07:30:50;;;;;;;;;11.33;9.00;;;;;;;;4884806;29;45387;-79
2022/07/09 07:33:15;;;;;;;;;9.50;8.50;;;;;;;;4878993;29;45948;-79
2022/07/09 07:35:40;;;;;;;;;11.25;11.25;;;;;;;;4907428;28;45323;-79
2022/07/09 07:38:05;;;;;;;;;5.75;5.75;;;;;;;;4893065;28;45443;-79
2022/07/09 07:40:31;;;;;;;;;9.00;7.00;;;;;;;;4899378;29;45496;-79
2022/07/09 07:42:56;;;;;;;;;6.25;6.25;;;;;;;;4891120;29;45349;-80
2022/07/09 07:45:21;;;;;;;;;8.50;8.00;;;;;;;;4899713;29;45704;-80
2022/07/09 07:47:46;;;;;;;;;8.00;8.00;;;;;;;;4884273;29;45580;-79
2022/07/09 07:50:12;;;;;;;;;7.75;7.75;;;;;;;;4897821;29;45503;-80
2022/07/09 07:52:37;;;;;;;;;8.00;8.00;;;;;;;;4884425;28;45382;-80
2022/07/09 07:55:02;;;;;;;;;7.25;7.25;;;;;;;;4886791;29;45747;-80
2022/07/09 07:57:27;;;;;;;;;8.75;7.75;;;;;;;;4887033;29;45480;-80
2022/07/09 07:59:53;;;;;;;;;9.50;8.00;;;;;;;;4891001;28;45459;-80
2022/07/09 08:02:18;;;;;;;;;7.25;7.25;;;;;;;;4886366;28;45489;-80
2022/07/09 08:04:43;;;;;;;;;8.50;7.25;;;;;;;;4887750;29;45372;-78
2022/07/09 08:07:08;;;;;;;;;7.00;6.50;;;;;;;;4890510;28;45418;-78
2022/07/09 08:09:34;;;;;;;;;6.00;6.00;;;;;;;;4890084;29;46349;-78
2022/07/09 08:11:59;;;;;;;;;6.50;5.00;;;;;;;;4887740;28;45468;-79
2022/07/09 08:14:24;;;;;;;;;7.00;6.75;;;;;;;;4888953;29;45494;-78
2022/07/09 08:16:49;;;;;;;;;7.75;6.25;;;;;;;;4892101;28;45528;-78
2022/07/09 08:19:15;;;;;;;;;7.25;6.50;;;;;;;;4882813;29;46271;-79
2022/07/09 08:21:41;;;;;;;;;6.75;6.75;;;;;;;;4889759;29;45399;-77
2022/07/09 08:24:06;;;;;;;;;6.75;6.75;;;;;;;;4885610;29;45385;-76
2022/07/09 08:26:31;;;;;;;;;8.00;6.75;;;;;;;;4894923;29;45518;-76
2022/07/09 08:28:56;;;;;;;;;7.25;6.25;;;;;;;;4887536;29;48143;-77
2022/07/09 08:31:22;;;;;;;;;6.50;5.25;;;;;;;;4894501;29;45293;-79
2022/07/09 08:33:47;;;;;;;;;5.00;5.00;;;;;;;;4886712;29;45412;-79
2022/07/09 08:36:13;;;;;;;;;7.00;7.00;;;;;;;;4884460;29;45389;-81
2022/07/09 08:38:38;;;;;;;;;5.50;5.50;;;;;;;;4890851;29;47174;-79
2022/07/09 08:41:04;;;;;;;;;6.00;6.00;;;;;;;;4895569;29;45229;-79
2022/07/09 08:43:32;;;;;;;;;8.00;6.40;;;;;;;;4877222;29;45278;-79
2022/07/09 08:45:57;;;;;;;;;6.20;6.20;;;;;;;;4899209;29;45365;-79
2022/07/09 08:48:22;;;;;;;;;7.50;7.50;;;;;;;;4876580;29;47128;-78
2022/07/09 08:50:48;;;;;;;;;6.75;6.75;;;;;;;;4884359;28;45369;-79
2022/07/09 08:53:16;;;;;;;;;6.75;6.75;;;;;;;;4878675;29;45357;-77
2022/07/09 08:55:41;;;;;;;;;6.60;5.20;;;;;;;;4888152;29;45260;-77
2022/07/09 08:58:07;;;;;;;;;8.25;6.25;;;;;;;;4881267;29;45741;-76
2022/07/09 09:00:32;;;;;;;;;5.75;4.25;;;;;;;;4892971;28;45515;-75
2022/07/09 09:02:57;;;;;;;;;5.50;5.50;;;;;;;;4889417;29;45404;-75
2022/07/09 09:05:22;;;;;;;;;4.75;4.75;;;;;;;;4896862;28;45216;-74
2022/07/09 09:07:48;;;;;;;;;9.00;8.00;;;;;;;;4878588;29;47114;-75
2022/07/09 09:10:21;;;;;;;;;6.00;6.00;;;;;;;;4889844;29;45300;-75
2022/07/09 09:12:47;;;;;;;;;6.00;6.00;;;;;;;;4882001;28;45563;-83
2022/07/09 09:15:16;;;;;;;;;11.25;11.25;;;;;;;;4891992;28;45610;-86
2022/07/09 09:17:44;;;;;;;;;11.00;7.80;;;;;;;;4881622;29;47060;-83
2022/07/09 09:20:16;;;;;;;;;7.20;5.40;;;;;;;;4892557;28;45325;-79
2022/07/09 09:23:02;;;;;;;;;6.80;6.00;;;;;;;;4886872;28;45323;-80
2022/07/09 09:25:27;;;;;;;;;5.20;5.20;;;;;;;;4901770;28;45466;-74
2022/07/09 09:27:53;;;;;;;;;4.00;4.00;;;;;;;;4895442;29;45573;-76
2022/07/09 09:30:18;;;;;;;;;4.20;3.20;;;;;;;;4897879;29;45466;-77
2022/07/09 09:32:44;;;;;;;;;3.50;3.50;;;;;;;;4894619;29;45261;-77
2022/07/09 09:35:09;;;;;;;;;4.00;4.00;;;;;;;;4901708;28;45465;-77
2022/07/09 09:37:34;;;;;;;;;4.00;4.00;;;;;;;;4889462;28;46706;-74
2022/07/09 09:40:07;;;;;;;;;9.75;9.25;;;;;;;;4897650;28;45363;-77
2022/07/09 09:42:33;;;;;;;;;6.20;5.20;;;;;;;;4882705;29;45330;-78
2022/07/09 09:44:59;;;;;;;;;4.80;2.80;;;;;;;;4897648;29;45294;-76
2022/07/09 09:47:25;;;;;;;;;5.00;3.00;;;;;;;;4889081;29;46415;-75
2022/07/09 09:49:50;;;;;;;;;4.00;4.00;;;;;;;;4898171;28;45495;-76
2022/07/09 09:52:18;;;;;;;;;4.00;4.00;;;;;;;;4885601;29;45540;-75
2022/07/09 09:54:46;;;;;;;;;2.00;2.00;;;;;;;;4899477;28;45459;-76
2022/07/09 09:57:16;;;;;;;;;3.00;3.00;;;;;;;;4884334;28;46739;-76
2022/07/09 09:59:44;;;;;;;;;3.00;3.00;;;;;;;;4898939;28;45309;-75
2022/07/09 10:02:10;;;;;;;;;4.20;2.40;;;;;;;;4892825;28;45490;-76
2022/07/09 10:04:35;;;;;;;;;4.00;3.00;;;;;;;;4896243;29;45391;-78
2022/07/09 10:07:01;;;;;;;;;2.00;2.00;;;;;;;;4894059;29;46486;-78
2022/07/09 10:09:26;;;;;;;;;2.25;1.00;;;;;;;;4899256;29;45380;-76
2022/07/09 10:11:51;;;;;;;;;4.00;4.00;;;;;;;;4895271;29;45343;-77
2022/07/09 10:14:18;;;;;;;;;4.00;2.50;;;;;;;;4896627;29;45702;-78
2022/07/09 10:16:43;;;;;;;;;3.20;3.00;;;;;;;;4896362;29;45501;-77
2022/07/09 10:19:08;;;;;;;;;3.00;3.00;;;;;;;;4889561;28;45377;-75
2022/07/09 10:21:38;;;;;;;;;3.00;3.00;;;;;;;;4888555;29;45490;-76
2022/07/09 10:24:09;;;;;;;;;2.80;2.00;;;;;;;;4889853;29;45285;-76
2022/07/09 10:26:43;;;;;;;;;2.80;2.80;;;;;;;;4893870;28;45375;-76
2022/07/09 10:29:19;;;;;;;;;3.60;3.60;;;;;;;;4890915;29;45455;-78
2022/07/09 10:31:45;;;;;;;;;3.20;3.00;;;;;;;;4891512;28;45381;-74
2022/07/09 10:34:16;;;;;;;;;4.80;3.80;;;;;;;;4892125;29;45323;-75
2022/07/09 10:36:55;;;;;;;;;1.80;1.80;;;;;;;;4885540;29;46809;-75
2022/07/09 10:39:20;;;;;;;;;2.00;2.00;;;;;;;;4891895;29;45598;-75
2022/07/09 10:41:46;;;;;;;;;4.00;4.00;;;;;;;;4897451;28;45310;-75
2022/07/09 10:44:11;;;;;;;;;3.50;3.50;;;;;;;;4900007;28;45673;-75
2022/07/09 10:46:36;;;;;;;;;4.00;4.00;;;;;;;;4896190;29;47172;-75
2022/07/09 10:49:02;;;;;;;;;4.00;4.00;;;;;;;;4899304;28;45236;-75
2022/07/09 10:51:27;;;;;;;;;3.75;3.50;;;;;;;;4898470;28;45285;-75
2022/07/09 10:53:52;;;;;;;;;3.25;3.00;;;;;;;;4902232;28;45579;-75
2022/07/09 10:56:18;;;;;;;;;3.50;3.50;;;;;;;;4898300;28;45396;-75
2022/07/09 10:58:45;;;;;;;;;3.00;3.00;;;;;;;;4899365;29;45316;-75
2022/07/09 11:01:18;;;;;;;;;4.40;3.40;;;;;;;;4894836;29;45248;-75
2022/07/09 11:03:47;;;;;;;;;3.60;3.60;;;;;;;;4891790;29;45297;-76
2022/07/09 11:06:13;;;;;;;;;2.60;2.60;;;;;;;;4896503;28;46593;-79
2022/07/09 11:08:38;;;;;;;;;3.75;3.75;;;;;;;;4874723;29;45487;-79
2022/07/09 11:11:03;;;;;;;;;3.75;3.75;;;;;;;;4886946;29;45455;-78
2022/07/09 11:13:28;;;;;;;;;4.00;3.00;;;;;;;;4876108;29;46752;-78
2022/07/09 11:15:58;;;;;;;;;3.50;3.00;;;;;;;;4885412;29;46434;-78
2022/07/09 11:18:25;;;;;;;;;3.20;3.20;;;;;;;;4883992;29;45290;-78
2022/07/09 11:20:51;;;;;;;;;4.00;4.00;;;;;;;;4889096;29;45391;-78
2022/07/09 11:23:16;;;;;;;;;3.50;3.50;;;;;;;;4881967;29;45565;-78
2022/07/09 11:25:42;;;;;;;;;3.75;3.75;;;;;;;;4897718;29;45279;-78
2022/07/09 11:28:08;;;;;;;;;4.75;4.00;;;;;;;;4882206;29;45465;-78
2022/07/09 11:30:33;;;;;;;;;5.25;5.25;;;;;;;;4884365;29;45409;-79
2022/07/09 11:32:59;;;;;;;;;5.00;5.00;;;;;;;;4888771;29;46031;-78
2022/07/09 11:35:24;;;;;;;;;4.50;3.50;;;;;;;;4900000;29;45429;-78
2022/07/09 11:37:49;;;;;;;;;3.75;3.75;;;;;;;;4884008;28;45366;-78
2022/07/09 11:40:18;;;;;;;;;4.00;2.50;;;;;;;;4891264;28;45407;-78
2022/07/09 11:42:43;;;;;;;;;3.60;3.60;;;;;;;;4888180;29;45848;-78
2022/07/09 11:45:09;;;;;;;;;5.00;5.00;;;;;;;;4887112;28;45451;-78
2022/07/09 11:47:38;;;;;;;;;5.00;3.00;;;;;;;;4879756;29;45417;-78
2022/07/09 11:50:11;;;;;;;;;4.00;4.00;;;;;;;;4883996;29;45405;-78
2022/07/09 11:52:43;;;;;;;;;4.00;4.00;;;;;;;;4886646;28;45618;-78
2022/07/09 11:55:09;;;;;;;;;3.80;3.80;;;;;;;;4892293;29;45670;-78
2022/07/09 11:57:35;;;;;;;;;4.00;4.00;;;;;;;;4889485;28;45703;-79
2022/07/09 12:00:01;;;;;;;;;4.40;4.40;;;;;;;;4893122;29;45359;-78
2022/07/09 12:02:34;;;;;;;;;3.50;3.50;;;;;;;;4884090;29;45343;-78
2022/07/09 12:04:59;;;;;;;;;3.20;3.20;;;;;;;;4896695;29;46525;-78
2022/07/09 12:07:24;;;;;;;;;3.50;3.50;;;;;;;;4885652;28;45219;-78
2022/07/09 12:10:00;;;;;;;;;6.00;4.75;;;;;;;;4892104;29;45418;-80
2022/07/09 12:12:26;;;;;;;;;4.60;4.60;;;;;;;;4885474;29;45429;-80
2022/07/09 12:14:51;;;;;;;;;5.50;4.00;;;;;;;;4885902;29;48138;-78
2022/07/09 12:17:20;;;;;;;;;4.25;3.00;;;;;;;;4877642;29;45390;-78
2022/07/09 12:19:45;;;;;;;;;4.80;4.60;;;;;;;;4882231;29;45649;-77
2022/07/09 12:22:11;;;;;;;;;3.50;3.25;;;;;;;;4896506;28;45502;-84
2022/07/09 12:24:36;;;;;;;;;3.75;2.25;;;;;;;;4901823;29;45519;-80
2022/07/09 12:27:01;;;;;;;;;3.50;3.50;;;;;;;;4885955;28;45513;-82
2022/07/09 12:29:26;;;;;;;;;4.50;3.50;;;;;;;;4890846;29;45400;-86
2022/07/09 12:31:51;;;;;;;;;5.00;5.00;;;;;;;;4883227;29;45388;-83
2022/07/09 12:34:17;;;;;;;;;3.75;3.75;;;;;;;;4881373;29;45578;-84
2022/07/09 12:36:42;;;;;;;;;5.00;4.00;;;;;;;;4892979;28;45489;-84
2022/07/09 12:39:07;;;;;;;;;4.75;3.50;;;;;;;;4885840;29;45501;-82
2022/07/09 12:41:32;;;;;;;;;7.25;5.25;;;;;;;;4895418;29;45551;-82
2022/07/09 12:43:57;;;;;;;;;5.75;5.50;;;;;;;;4891158;29;46831;-83
2022/07/09 12:46:23;;;;;;;;;4.25;4.25;;;;;;;;4894678;28;45454;-85
2022/07/09 12:48:48;;;;;;;;;8.75;8.75;;;;;;;;4885803;29;45228;-84
2022/07/09 12:51:13;;;;;;;;;8.00;8.00;;;;;;;;4892547;28;45312;-82
2022/07/09 12:53:38;;;;;;;;;3.00;3.00;;;;;;;;4877387;29;45888;-86
2022/07/09 12:56:04;;;;;;;;;3.25;3.25;;;;;;;;4878076;29;45614;-81
2022/07/09 12:58:29;;;;;;;;;3.25;3.25;;;;;;;;4877498;29;45383;-83
2022/07/09 13:00:54;;;;;;;;;5.00;5.00;;;;;;;;4879968;29;45495;-83
2022/07/09 13:03:19;;;;;;;;;9.75;8.25;;;;;;;;4878613;29;46097;-84
2022/07/09 13:05:45;;;;;;;;;5.00;5.00;;;;;;;;4881212;29;45574;-84
2022/07/09 13:08:10;;;;;;;;;4.25;4.25;;;;;;;;4878939;29;45318;-79
2022/07/09 13:10:35;;;;;;;;;7.75;5.00;;;;;;;;4881599;29;45583;-77
2022/07/09 13:13:00;;;;;;;;;7.25;5.75;;;;;;;;4881231;29;46552;-79
2022/07/09 13:15:26;;;;;;;;;6.50;4.75;;;;;;;;4885973;29;45444;-79
2022/07/09 13:17:51;;;;;;;;;5.00;5.00;;;;;;;;4881998;29;45596;-78
2022/07/09 13:20:17;;;;;;;;;5.00;5.00;;;;;;;;4880940;29;46638;-78
2022/07/09 13:22:42;;;;;;;;;11.60;8.80;;;;;;;;4879181;29;46297;-79
2022/07/09 13:25:07;;;;;;;;;11.50;10.25;;;;;;;;4879853;29;45420;-80
2022/07/09 13:27:32;;;;;;;;;14.25;14.25;;;;;;;;4878431;29;46702;-78
2022/07/09 13:29:58;;;;;;;;;4.50;3.50;;;;;;;;4875819;29;47153;-77
2022/07/09 13:32:23;;;;;;;;;4.25;4.00;;;;;;;;4872036;29;45887;-78
2022/07/09 13:34:51;;;;;;;;;5.00;3.00;;;;;;;;4880443;29;45443;-78
2022/07/09 13:37:17;;;;;;;;;4.80;4.80;;;;;;;;4880636;29;45229;-78
2022/07/09 13:39:42;;;;;;;;;3.00;3.00;;;;;;;;4881016;29;45392;-77
2022/07/09 13:42:07;;;;;;;;;3.00;3.00;;;;;;;;4879168;29;45448;-76
2022/07/09 13:44:32;;;;;;;;;3.75;2.75;;;;;;;;4882279;29;45276;-81
2022/07/09 13:46:57;;;;;;;;;3.75;3.75;;;;;;;;4877788;29;45379;-79
2022/07/09 13:49:23;;;;;;;;;9.50;9.50;;;;;;;;4877491;29;45419;-81
2022/07/09 13:51:48;;;;;;;;;3.00;3.00;;;;;;;;4878055;29;46704;-80
2022/07/09 13:54:13;;;;;;;;;3.00;3.00;;;;;;;;4882882;28;45427;-79
2022/07/09 13:56:39;;;;;;;;;2.50;2.50;;;;;;;;4875773;29;46425;-79
2022/07/09 13:59:04;;;;;;;;;5.00;4.00;;;;;;;;4875698;29;45610;-79
2022/07/09 14:01:29;;;;;;;;;4.25;4.25;;;;;;;;4877794;29;45800;-80
2022/07/09 14:03:54;;;;;;;;;5.00;5.00;;;;;;;;4877562;29;46347;-80
2022/07/09 14:06:20;;;;;;;;;3.00;3.00;;;;;;;;4876579;29;45460;-82
2022/07/09 14:08:45;;;;;;;;;5.75;4.00;;;;;;;;4877122;29;45502;-79
2022/07/09 14:11:10;;;;;;;;;4.75;4.75;;;;;;;;4876106;29;47617;-80
2022/07/09 14:13:36;;;;;;;;;3.50;3.00;;;;;;;;4876939;29;45273;-80
2022/07/09 14:16:01;;;;;;;;;5.50;5.50;;;;;;;;4880375;29;46688;-81
2022/07/09 14:18:26;;;;;;;;;5.50;4.75;;;;;;;;4880379;29;45475;-79
2022/07/09 14:20:52;;;;;;;;;4.50;4.50;;;;;;;;4877841;29;46680;-79
2022/07/09 14:23:17;;;;;;;;;3.25;3.00;;;;;;;;4879862;29;45494;-81
2022/07/09 14:25:42;;;;;;;;;4.75;3.75;;;;;;;;4878193;29;45518;-79
2022/07/09 14:28:07;;;;;;;;;5.50;4.50;;;;;;;;4882969;29;45485;-80